Terminal Aerodrome Forecast
Issued by NWS Louisville, KY

Home | Current Version | Previous Version | Text Only | Print | Product List | Glossary On
Versions: 1 2 3 4 5 6 7 8 9 10 11 12 13 14 15 16 17 18 19
000
FTUS43 KLMK 260500
TAFBWG
TAF
KBWG 260537Z 2606/2706 29009KT 6SM -RA BR BKN008
     FM260700 31013G20KT 6SM -RASN BR BKN012
     FM261000 31012KT 6SM BR BKN015
     FM261500 31010KT P6SM BKN015
     FM262300 VRB04KT P6SM SCT020 BKN050=

USA.gov is the U.S. government's official web portal to all federal, state and local government web resources and services.